Chicago, Illinois
Traffic Map
Current Weather Conditions
Chicago, Illinois
Overcast
Overcast
56°
Feels Like: 56°
Wind Chill: 56° Ceiling: 1200
Heat Index: 56° Visibility: 10mi
Dew Point: 55° Wind: 14mph
Humidity: 97% Direction: 200° (SSW)
Pressure: 29.79in Gusts: 22mph
Raw Report DataKMDW 192053Z 20012G19KT 10SM SCT008 BKN012 OVC019 13/13 A2979 RMK AO2 SLP089 60001 T01330128 55002
Traffic Incident Summary
Active as of:
Severity:
Category:
InformationThere was an issue retrieving the traffic information for this location. Please try a different location or try again shortly.
Advertisements